Time;durP1;ratioP1;P1;durP2;ratioP2;P2;SDS_P1;SDS_P2;PMS_P1;PMS_P2;Temp;Humidity;BMP_temperature;BMP_pressure;BME280_temperature;BME280_humidity;BME280_pressure;Samples;Min_cycle;Max_cycle;Signal;HPM_P1;HPM_P2
2022/09/03 00:02:22;;;;;;;5.50;3.50;;;14.20;84.00;;;;;;5097690;28;20220;-72
2022/09/03 00:04:58;;;;;;;7.70;3.50;;;14.30;84.30;;;;;;5086886;28;20205;-72
2022/09/03 00:07:32;;;;;;;12.83;3.40;;;14.20;84.20;;;;;;5095298;28;20200;-73
2022/09/03 00:10:04;;;;;;;6.10;3.93;;;14.10;84.20;;;;;;5091807;28;20212;-71
2022/09/03 00:12:38;;;;;;;6.87;3.10;;;14.10;84.10;;;;;;5094922;28;20200;-72
2022/09/03 00:15:08;;;;;;;6.73;2.73;;;14.00;83.80;;;;;;5095554;28;20240;-72
2022/09/03 00:17:39;;;;;;;6.87;3.20;;;14.00;83.80;;;;;;5094893;28;20196;-73
2022/09/03 00:20:11;;;;;;;6.00;3.30;;;13.90;83.90;;;;;;5093762;28;20196;-72
2022/09/03 00:22:43;;;;;;;7.27;3.10;;;13.80;83.90;;;;;;5092974;28;20231;-72
2022/09/03 00:25:14;;;;;;;4.73;2.97;;;13.80;84.20;;;;;;5093223;28;20200;-73
2022/09/03 00:27:45;;;;;;;7.27;3.00;;;13.80;84.70;;;;;;5094447;28;20197;-73
2022/09/03 00:30:13;;;;;;;7.13;3.03;;;13.70;84.90;;;;;;5094825;28;20201;-72
2022/09/03 00:32:46;;;;;;;7.67;3.57;;;13.60;85.80;;;;;;5093695;28;20217;-72
2022/09/03 00:35:20;;;;;;;5.30;2.90;;;13.60;85.40;;;;;;5094722;28;20197;-72
2022/09/03 00:37:47;;;;;;;5.73;3.10;;;13.70;85.80;;;;;;5093987;28;20275;-73
2022/09/03 00:40:31;;;;;;;5.40;3.23;;;13.60;86.00;;;;;;5094581;28;20204;-72
2022/09/03 00:43:04;;;;;;;6.33;3.00;;;13.60;86.10;;;;;;5092277;28;20852;-72
2022/09/03 00:45:37;;;;;;;3.73;2.87;;;13.50;86.00;;;;;;5095146;28;20225;-72
2022/09/03 00:48:17;;;;;;;3.87;3.00;;;13.50;86.00;;;;;;5095041;28;20184;-72
2022/09/03 00:50:59;;;;;;;3.47;2.70;;;13.40;85.90;;;;;;5092116;28;20281;-72
2022/09/03 00:53:33;;;;;;;5.97;2.70;;;13.30;85.80;;;;;;5093478;28;20197;-71
2022/09/03 00:56:14;;;;;;;5.97;2.47;;;13.20;85.90;;;;;;5093315;28;20673;-71
2022/09/03 00:58:54;;;;;;;6.17;2.50;;;13.10;86.10;;;;;;5093483;28;20561;-70
2022/09/03 01:01:27;;;;;;;6.83;2.70;;;13.00;86.30;;;;;;5093602;28;20688;-71
2022/09/03 01:04:06;;;;;;;9.27;2.83;;;13.00;86.60;;;;;;5094005;28;20566;-70
2022/09/03 01:06:41;;;;;;;3.87;2.50;;;13.00;86.90;;;;;;5094044;28;20217;-70
2022/09/03 01:09:22;;;;;;;5.80;2.77;;;12.90;87.00;;;;;;5093112;28;20204;-70
2022/09/03 01:11:58;;;;;;;5.57;2.60;;;12.90;87.40;;;;;;5092577;28;20201;-69
2022/09/03 01:14:36;;;;;;;5.50;2.70;;;12.80;87.70;;;;;;5091768;28;20208;-70
2022/09/03 01:17:11;;;;;;;4.83;2.83;;;12.70;87.70;;;;;;5093239;28;20193;-70
2022/09/03 01:20:17;;;;;;;5.83;2.70;;;12.80;87.80;;;;;;5091507;28;20268;-71
2022/09/03 01:23:08;;;;;;;6.07;3.13;;;12.60;88.20;;;;;;5091431;28;20208;-71
2022/09/03 01:25:51;;;;;;;5.10;2.47;;;12.60;88.70;;;;;;5101232;28;20231;-70
2022/09/03 01:28:31;;;;;;;3.83;2.30;;;12.60;89.00;;;;;;5093089;28;20276;-70
2022/09/03 01:31:10;;;;;;;5.10;2.57;;;12.60;89.30;;;;;;5093345;28;20612;-70
2022/09/03 01:33:41;;;;;;;3.97;2.67;;;12.60;89.50;;;;;;5093365;28;20204;-70
2022/09/03 01:36:17;;;;;;;7.87;3.07;;;12.50;89.60;;;;;;5092813;28;20236;-69
2022/09/03 01:38:50;;;;;;;5.67;2.93;;;12.50;89.80;;;;;;5091069;28;20215;-70
2022/09/03 01:44:19;;;;;;;3.27;2.30;;;12.50;90.20;;;;;;5089938;28;20204;-70
2022/09/03 01:46:50;;;;;;;4.00;2.60;;;12.50;90.30;;;;;;5092829;28;20208;-70
2022/09/03 01:49:23;;;;;;;4.40;2.87;;;12.50;90.30;;;;;;5092279;28;20284;-70
2022/09/03 01:51:56;;;;;;;5.30;2.87;;;12.40;90.40;;;;;;5093188;28;20201;-70
2022/09/03 01:54:41;;;;;;;4.40;2.50;;;12.40;90.50;;;;;;5093282;28;20223;-71
2022/09/03 01:57:25;;;;;;;7.67;2.53;;;12.40;90.60;;;;;;5092228;28;20201;-71
2022/09/03 02:00:00;;;;;;;6.07;2.87;;;12.40;91.10;;;;;;5082558;28;20643;-71
2022/09/03 02:02:29;;;;;;;4.07;2.80;;;12.40;90.80;;;;;;5093006;28;20199;-70
2022/09/03 02:05:01;;;;;;;3.63;2.47;;;12.30;90.80;;;;;;5088053;28;20216;-70
2022/09/03 02:07:33;;;;;;;5.00;2.80;;;12.30;90.90;;;;;;5091316;28;20224;-70
2022/09/03 02:10:01;;;;;;;6.00;2.57;;;12.20;90.90;;;;;;5091288;28;20202;-70
2022/09/03 02:12:31;;;;;;;6.77;2.80;;;12.20;91.10;;;;;;5092448;28;20209;-69
2022/09/03 02:15:02;;;;;;;3.67;2.03;;;12.20;91.20;;;;;;5092025;28;20212;-69
2022/09/03 02:17:29;;;;;;;5.27;2.73;;;12.10;91.30;;;;;;5089860;28;20204;-68
2022/09/03 02:19:56;;;;;;;4.30;3.30;;;12.10;91.60;;;;;;5096800;28;20204;-72
2022/09/03 02:22:23;;;;;;;4.27;2.40;;;12.10;91.60;;;;;;5094729;28;20232;-70
2022/09/03 02:24:50;;;;;;;4.20;2.67;;;12.10;91.60;;;;;;5106222;28;20673;-71
2022/09/03 02:27:19;;;;;;;4.53;2.47;;;12.10;91.80;;;;;;5092944;28;20307;-71
2022/09/03 02:29:46;;;;;;;6.10;2.50;;;12.10;91.90;;;;;;5080633;28;20736;-70
2022/09/03 02:32:15;;;;;;;6.30;2.63;;;12.00;91.90;;;;;;5093804;28;20205;-71
2022/09/03 02:34:42;;;;;;;4.87;2.60;;;12.00;92.10;;;;;;5091259;28;20325;-71
2022/09/03 02:37:13;;;;;;;3.37;2.80;;;12.00;92.20;;;;;;5094240;28;20232;-70
2022/09/03 02:39:40;;;;;;;6.27;2.80;;;12.00;92.40;;;;;;5092662;28;20211;-71
2022/09/03 02:42:07;;;;;;;4.43;2.60;;;12.10;92.50;;;;;;5100750;28;20647;-71
2022/09/03 02:44:38;;;;;;;4.33;2.70;;;12.00;92.50;;;;;;5102272;28;20235;-70
2022/09/03 02:47:07;;;;;;;5.93;3.03;;;12.00;92.60;;;;;;5093203;28;20611;-70
2022/09/03 02:49:35;;;;;;;8.37;2.93;;;12.00;92.70;;;;;;5097651;28;20684;-71
2022/09/03 02:52:05;;;;;;;4.17;2.57;;;11.90;92.70;;;;;;5090174;28;20197;-71
2022/09/03 02:54:34;;;;;;;9.97;3.00;;;11.90;92.80;;;;;;5093519;28;20205;-72
2022/09/03 02:57:01;;;;;;;4.23;3.17;;;11.80;92.90;;;;;;5092804;28;20588;-72
2022/09/03 02:59:28;;;;;;;10.67;2.60;;;11.80;92.90;;;;;;5093196;28;20212;-72
2022/09/03 03:01:55;;;;;;;7.83;2.97;;;11.80;92.90;;;;;;5109333;28;20222;-72
2022/09/03 03:04:22;;;;;;;5.33;2.80;;;11.80;93.10;;;;;;5095923;28;20220;-72
2022/09/03 03:06:50;;;;;;;8.10;2.80;;;11.80;93.40;;;;;;5096007;28;20224;-71
2022/09/03 03:09:17;;;;;;;4.07;2.73;;;11.80;93.50;;;;;;5097812;28;20213;-71
2022/09/03 03:11:44;;;;;;;3.33;2.50;;;11.80;93.60;;;;;;5094926;28;20204;-70
2022/09/03 03:14:11;;;;;;;6.50;2.87;;;11.80;94.10;;;;;;5099883;28;20206;-70
2022/09/03 03:16:37;;;;;;;7.03;2.50;;;11.70;93.80;;;;;;5107565;28;20221;-70
2022/09/03 03:19:04;;;;;;;6.90;2.77;;;11.80;94.00;;;;;;5103938;28;20212;-70
2022/09/03 03:21:31;;;;;;;3.80;2.70;;;11.80;94.00;;;;;;5096176;28;20212;-70
2022/09/03 03:24:01;;;;;;;5.13;2.73;;;11.80;94.10;;;;;;5112017;28;20223;-71
2022/09/03 03:26:28;;;;;;;5.03;2.50;;;11.80;94.30;;;;;;5094755;28;20213;-70
2022/09/03 03:28:58;;;;;;;4.77;2.80;;;11.80;94.40;;;;;;5095551;28;20676;-71
2022/09/03 03:31:25;;;;;;;5.03;2.50;;;11.80;94.40;;;;;;5096418;28;20204;-71
2022/09/03 03:33:53;;;;;;;4.93;2.47;;;11.80;94.50;;;;;;5095951;28;20657;-69
2022/09/03 03:36:21;;;;;;;6.80;2.70;;;11.70;94.50;;;;;;5095719;28;20239;-70
2022/09/03 03:38:49;;;;;;;5.53;2.83;;;11.70;94.60;;;;;;5096289;28;20216;-71
2022/09/03 03:41:20;;;;;;;3.77;2.63;;;11.70;94.70;;;;;;5094140;28;20687;-71
2022/09/03 03:43:48;;;;;;;4.00;2.63;;;11.60;94.80;;;;;;5096329;28;20548;-71
2022/09/03 03:46:15;;;;;;;5.93;2.80;;;11.60;94.90;;;;;;5094204;28;20204;-71
2022/09/03 03:48:41;;;;;;;5.40;2.63;;;11.50;95.00;;;;;;5090430;28;20629;-69
2022/09/03 03:51:10;;;;;;;3.67;2.80;;;11.50;95.10;;;;;;5086357;28;20208;-70
2022/09/03 03:53:38;;;;;;;4.43;2.30;;;11.50;95.20;;;;;;5110153;28;20218;-69
2022/09/03 03:56:08;;;;;;;3.80;2.20;;;11.50;95.40;;;;;;5094592;28;20200;-70
2022/09/03 03:58:37;;;;;;;6.57;2.43;;;11.50;95.60;;;;;;5096158;28;20231;-71
2022/09/03 04:01:06;;;;;;;6.40;2.73;;;11.50;95.60;;;;;;5093923;28;20219;-71
2022/09/03 04:03:33;;;;;;;5.33;2.63;;;11.50;95.60;;;;;;5094698;28;20209;-70
2022/09/03 04:06:01;;;;;;;5.73;2.30;;;11.40;95.70;;;;;;5092377;28;20211;-71
2022/09/03 04:08:28;;;;;;;7.63;2.67;;;11.50;95.80;;;;;;5095090;28;20221;-69
2022/09/03 04:11:00;;;;;;;3.23;2.43;;;11.50;95.80;;;;;;5095484;28;20504;-70
2022/09/03 04:13:29;;;;;;;5.67;2.60;;;11.50;95.80;;;;;;5084454;28;20295;-70
2022/09/03 04:16:02;;;;;;;4.17;2.30;;;11.50;95.90;;;;;;5086852;28;20663;-70
2022/09/03 04:18:29;;;;;;;4.67;2.27;;;11.50;95.90;;;;;;5098982;28;20211;-70
2022/09/03 04:21:00;;;;;;;5.00;3.23;;;11.50;96.00;;;;;;5093052;28;20204;-71
2022/09/03 04:23:28;;;;;;;7.33;2.73;;;11.50;96.10;;;;;;5105982;28;20310;-71
2022/09/03 04:25:54;;;;;;;4.50;2.43;;;11.50;96.10;;;;;;5097923;28;20675;-70
2022/09/03 04:28:21;;;;;;;3.63;2.40;;;11.50;96.20;;;;;;5094536;28;20232;-72
2022/09/03 04:30:48;;;;;;;3.70;2.37;;;11.50;96.20;;;;;;5094606;28;20204;-71
2022/09/03 04:33:16;;;;;;;6.03;2.60;;;11.60;96.30;;;;;;5095408;28;20204;-71
2022/09/03 04:35:43;;;;;;;5.27;2.77;;;11.60;96.40;;;;;;5092520;28;20205;-71
2022/09/03 04:38:10;;;;;;;4.37;2.50;;;11.60;96.50;;;;;;5093313;28;20239;-71
2022/09/03 04:40:37;;;;;;;3.00;2.57;;;11.70;96.60;;;;;;5094326;28;20238;-71
2022/09/03 04:43:05;;;;;;;16.47;3.40;;;11.80;96.60;;;;;;5095872;28;20597;-70
2022/09/03 04:45:32;;;;;;;5.87;2.37;;;11.80;96.70;;;;;;5093943;28;20196;-71
2022/09/03 04:48:00;;;;;;;7.20;2.67;;;11.80;96.70;;;;;;5095401;28;20228;-71
2022/09/03 04:50:29;;;;;;;6.73;2.67;;;11.90;96.70;;;;;;5093679;28;20204;-71
2022/09/03 04:53:01;;;;;;;5.00;2.73;;;11.90;96.70;;;;;;5094906;28;20205;-72
2022/09/03 04:55:28;;;;;;;6.37;2.87;;;11.90;96.60;;;;;;5093133;28;20679;-72
2022/09/03 04:57:54;;;;;;;7.87;3.33;;;11.90;96.60;;;;;;5095297;28;20552;-72
2022/09/03 05:00:21;;;;;;;4.97;2.77;;;11.90;96.70;;;;;;5093162;28;20701;-72
2022/09/03 05:02:50;;;;;;;5.90;2.80;;;12.00;96.80;;;;;;5094494;28;20216;-72
2022/09/03 05:05:18;;;;;;;7.27;2.77;;;12.00;96.80;;;;;;5093088;28;20547;-72
2022/09/03 05:07:46;;;;;;;6.93;2.73;;;12.00;96.70;;;;;;5094386;28;20592;-71
2022/09/03 05:10:19;;;;;;;6.10;2.73;;;12.10;96.60;;;;;;5092765;28;20189;-72
2022/09/03 05:12:46;;;;;;;5.97;2.77;;;12.20;96.70;;;;;;5086969;28;20205;-70
2022/09/03 05:15:13;;;;;;;5.83;2.40;;;12.20;96.70;;;;;;5093847;28;20213;-71
2022/09/03 05:17:40;;;;;;;6.60;2.60;;;12.20;96.60;;;;;;5094040;28;20564;-70
2022/09/03 05:20:08;;;;;;;5.70;2.87;;;12.30;96.60;;;;;;5092695;28;20589;-71
2022/09/03 05:22:35;;;;;;;5.80;2.77;;;12.40;96.50;;;;;;5090542;28;20232;-71
2022/09/03 05:25:04;;;;;;;6.03;2.50;;;12.50;96.40;;;;;;5092353;28;22502;-70
2022/09/03 05:27:31;;;;;;;8.90;3.30;;;12.60;96.20;;;;;;5092981;28;20224;-71
2022/09/03 05:29:58;;;;;;;6.03;2.60;;;12.70;96.10;;;;;;5094552;28;20220;-71
2022/09/03 05:32:27;;;;;;;5.30;2.87;;;12.80;95.90;;;;;;5107642;28;20713;-72
2022/09/03 05:34:54;;;;;;;4.63;2.60;;;12.90;95.70;;;;;;5090564;28;20230;-71
2022/09/03 05:37:22;;;;;;;10.53;3.10;;;12.90;95.60;;;;;;5091264;28;20245;-71
2022/09/03 05:39:48;;;;;;;6.33;2.77;;;13.00;95.60;;;;;;5091800;28;20263;-71
2022/09/03 05:42:17;;;;;;;5.87;2.20;;;13.00;95.40;;;;;;5093323;28;20668;-73
2022/09/03 05:44:43;;;;;;;5.30;2.60;;;13.10;95.20;;;;;;5092921;28;20231;-72
2022/09/03 05:47:10;;;;;;;5.33;3.40;;;13.20;95.00;;;;;;5093702;28;20330;-73
2022/09/03 05:49:37;;;;;;;5.10;2.77;;;13.30;95.00;;;;;;5094445;28;20204;-71
2022/09/03 05:52:04;;;;;;;3.43;2.23;;;13.40;95.00;;;;;;5093737;28;20570;-72
2022/09/03 05:54:30;;;;;;;5.83;2.77;;;13.50;94.80;;;;;;5102621;28;20210;-69
2022/09/03 05:56:57;;;;;;;3.63;2.50;;;13.50;94.70;;;;;;5105205;28;20212;-69
2022/09/03 05:59:25;;;;;;;4.53;2.50;;;13.70;94.50;;;;;;5097829;28;20208;-68
2022/09/03 06:01:52;;;;;;;4.80;2.20;;;13.70;94.20;;;;;;5090664;28;20673;-69
2022/09/03 06:04:20;;;;;;;5.10;2.57;;;13.90;94.10;;;;;;5103029;28;20216;-69
2022/09/03 06:06:48;;;;;;;7.10;3.10;;;14.00;94.00;;;;;;5102813;28;20228;-68
2022/09/03 06:09:16;;;;;;;5.30;2.00;;;14.50;95.00;;;;;;5100178;28;20204;-69
2022/09/03 06:11:44;;;;;;;3.10;2.37;;;14.80;93.20;;;;;;5088392;28;20519;-69
2022/09/03 06:14:13;;;;;;;4.33;2.60;;;14.90;92.20;;;;;;5098004;28;20227;-67
2022/09/03 06:16:43;;;;;;;3.73;2.13;;;14.90;91.90;;;;;;5104315;28;20260;-69
2022/09/03 06:19:11;;;;;;;3.00;2.53;;;15.00;91.90;;;;;;5098665;28;20270;-68
2022/09/03 06:21:41;;;;;;;3.73;2.07;;;15.00;91.90;;;;;;5105441;28;20228;-68
2022/09/03 06:24:09;;;;;;;5.27;2.33;;;15.10;91.90;;;;;;5095965;28;20216;-68
2022/09/03 06:26:36;;;;;;;3.17;2.00;;;15.10;91.70;;;;;;5093620;28;20676;-72
2022/09/03 06:29:03;;;;;;;4.37;2.53;;;15.20;91.60;;;;;;5091418;28;20228;-71
2022/09/03 06:31:30;;;;;;;4.23;1.97;;;15.30;91.50;;;;;;5107504;28;20204;-71
2022/09/03 06:33:58;;;;;;;6.37;2.10;;;15.40;91.50;;;;;;5102620;28;20205;-71
2022/09/03 06:36:25;;;;;;;6.33;2.63;;;15.40;91.40;;;;;;5089987;28;20704;-72
2022/09/03 06:38:54;;;;;;;3.43;2.23;;;15.40;91.00;;;;;;5112202;28;20230;-72
2022/09/03 06:41:24;;;;;;;6.50;2.30;;;15.50;90.90;;;;;;5115979;28;20743;-73
2022/09/03 06:43:53;;;;;;;3.47;2.23;;;15.60;90.80;;;;;;5098508;28;20201;-72
2022/09/03 06:46:22;;;;;;;3.60;2.07;;;15.60;90.80;;;;;;5096188;28;20208;-72
2022/09/03 06:48:49;;;;;;;5.40;2.40;;;15.70;90.90;;;;;;5094293;28;20224;-68
2022/09/03 06:51:19;;;;;;;4.57;2.13;;;15.80;90.80;;;;;;5103397;28;20213;-69
2022/09/03 06:53:48;;;;;;;5.77;2.20;;;16.00;90.40;;;;;;5102056;28;20616;-67
2022/09/03 06:56:17;;;;;;;3.43;2.50;;;16.10;89.80;;;;;;5100364;28;20211;-68
2022/09/03 06:58:45;;;;;;;5.03;2.10;;;16.10;89.70;;;;;;5092630;28;20212;-69
2022/09/03 07:01:13;;;;;;;3.47;2.40;;;16.30;90.00;;;;;;5093436;28;20210;-69
2022/09/03 07:03:43;;;;;;;4.83;2.40;;;16.40;89.10;;;;;;5092451;28;20216;-68
2022/09/03 07:06:12;;;;;;;7.10;2.70;;;16.60;88.30;;;;;;5099300;28;20220;-68
2022/09/03 07:08:41;;;;;;;9.98;2.65;;;16.70;87.60;;;;;;5103385;28;20231;-69
2022/09/03 07:11:10;;;;;;;4.75;2.58;;;16.90;87.40;;;;;;5099294;28;20234;-68
2022/09/03 07:13:39;;;;;;;6.13;2.70;;;17.00;86.40;;;;;;5101281;28;20201;-67
2022/09/03 07:16:08;;;;;;;4.70;2.30;;;17.20;84.40;;;;;;5097890;28;20196;-68
2022/09/03 07:18:35;;;;;;;5.45;2.35;;;17.30;84.10;;;;;;5109884;28;20207;-68
2022/09/03 07:21:04;;;;;;;6.32;2.25;;;17.40;84.30;;;;;;5106535;28;20209;-69
2022/09/03 07:23:31;;;;;;;2.85;1.98;;;17.50;84.00;;;;;;5111412;28;20226;-67
2022/09/03 07:26:01;;;;;;;5.20;2.22;;;17.70;83.70;;;;;;5105700;28;20327;-67
2022/09/03 07:28:30;;;;;;;5.95;2.40;;;17.90;82.90;;;;;;5097968;28;20307;-67
2022/09/03 07:31:04;;;;;;;4.95;2.08;;;18.00;81.80;;;;;;5099259;28;20577;-68
2022/09/03 07:33:32;;;;;;;7.65;2.75;;;18.10;81.90;;;;;;5091807;28;20201;-67
2022/09/03 07:36:04;;;;;;;2.60;1.67;;;18.30;80.10;;;;;;5086170;28;20245;-67
2022/09/03 07:38:30;;;;;;;5.82;1.80;;;18.50;78.90;;;;;;5092588;28;20232;-67
2022/09/03 07:40:58;;;;;;;3.13;1.70;;;18.60;77.60;;;;;;5094709;28;20209;-68
2022/09/03 07:43:27;;;;;;;2.25;2.00;;;18.70;76.50;;;;;;5091890;28;20734;-65
2022/09/03 07:45:55;;;;;;;5.13;2.28;;;18.90;76.20;;;;;;5098968;28;20208;-67
2022/09/03 07:48:23;;;;;;;4.85;2.50;;;19.10;76.00;;;;;;5084564;28;20620;-69
2022/09/03 07:50:50;;;;;;;10.10;2.40;;;19.20;75.20;;;;;;5077839;28;20207;-66
2022/09/03 07:53:17;;;;;;;4.82;2.30;;;19.40;74.40;;;;;;5092369;28;20208;-65
2022/09/03 07:55:45;;;;;;;10.27;2.28;;;19.60;73.60;;;;;;5093180;28;20215;-68
2022/09/03 07:58:13;;;;;;;4.63;2.05;;;19.70;73.00;;;;;;5099307;28;20512;-66
2022/09/03 08:00:41;;;;;;;9.13;2.47;;;19.90;72.10;;;;;;5093148;28;20212;-67
2022/09/03 08:03:07;;;;;;;4.97;2.40;;;20.00;71.30;;;;;;5092219;28;20201;-65
2022/09/03 08:05:36;;;;;;;4.85;2.38;;;20.10;71.10;;;;;;5094137;28;20611;-66
2022/09/03 08:08:04;;;;;;;5.07;1.83;;;20.30;71.00;;;;;;5091642;28;20235;-66
2022/09/03 08:10:31;;;;;;;4.85;1.67;;;20.50;68.80;;;;;;5089812;28;20574;-68
2022/09/03 08:12:58;;;;;;;4.88;1.75;;;20.60;66.40;;;;;;5092505;28;20564;-66
2022/09/03 08:15:25;;;;;;;3.63;2.00;;;20.70;65.40;;;;;;5090572;28;20451;-66
2022/09/03 08:17:53;;;;;;;3.40;1.73;;;20.80;65.20;;;;;;5093933;28;20197;-67
2022/09/03 08:20:20;;;;;;;4.88;1.92;;;21.00;65.10;;;;;;5090888;28;20201;-68
2022/09/03 08:22:47;;;;;;;3.28;1.90;;;21.20;64.70;;;;;;5081971;28;20229;-66
2022/09/03 08:25:13;;;;;;;5.00;1.70;;;21.30;63.60;;;;;;5089570;28;20261;-67
2022/09/03 08:27:40;;;;;;;2.55;1.50;;;21.40;62.60;;;;;;5101954;28;20203;-70
2022/09/03 08:30:10;;;;;;;1.67;1.30;;;21.50;62.00;;;;;;5096267;28;20204;-66
2022/09/03 08:32:37;;;;;;;5.55;1.90;;;21.60;61.20;;;;;;5089593;28;20208;-64
2022/09/03 08:35:08;;;;;;;6.22;1.88;;;21.80;60.60;;;;;;5086491;28;20566;-63
2022/09/03 08:37:35;;;;;;;4.28;1.60;;;22.00;61.00;;;;;;5097186;28;20320;-66
2022/09/03 08:40:03;;;;;;;2.97;1.80;;;22.10;59.70;;;;;;5101107;28;20208;-66
2022/09/03 08:42:47;;;;;;;2.25;1.50;;;22.20;59.20;;;;;;5100436;28;20860;-67
2022/09/03 08:45:19;;;;;;;4.20;2.00;;;22.30;58.70;;;;;;5094831;28;20212;-67
2022/09/03 08:47:50;;;;;;;3.80;1.80;;;22.40;57.70;;;;;;5093851;28;20204;-66
2022/09/03 08:50:25;;;;;;;3.55;1.92;;;22.50;57.10;;;;;;5093864;28;20200;-68
2022/09/03 08:52:59;;;;;;;2.17;1.90;;;22.70;57.20;;;;;;5099162;28;20208;-69
2022/09/03 08:55:28;;;;;;;4.22;1.95;;;22.80;55.90;;;;;;5088884;28;20732;-68
2022/09/03 08:58:01;;;;;;;6.70;2.00;;;22.90;55.60;;;;;;5101737;28;20200;-68
2022/09/03 09:00:41;;;;;;;2.42;1.50;;;23.00;55.00;;;;;;5092657;28;20208;-69
2022/09/03 09:03:29;;;;;;;7.93;1.92;;;23.10;55.30;;;;;;5085189;28;20226;-68
2022/09/03 09:06:07;;;;;;;2.67;1.63;;;23.30;55.60;;;;;;5086856;28;20251;-69
2022/09/03 09:08:43;;;;;;;2.08;1.50;;;23.40;55.30;;;;;;5093516;28;20243;-68
2022/09/03 09:11:26;;;;;;;3.33;1.60;;;23.60;54.70;;;;;;5087968;28;20212;-68
2022/09/03 09:13:59;;;;;;;2.67;1.35;;;23.70;54.00;;;;;;5091926;28;20200;-67
2022/09/03 09:16:36;;;;;;;4.38;1.52;;;23.60;53.10;;;;;;5092212;28;20212;-67
2022/09/03 09:19:19;;;;;;;1.73;1.10;;;23.70;53.90;;;;;;5092719;28;20189;-69
2022/09/03 09:21:53;;;;;;;1.63;1.00;;;23.90;53.10;;;;;;5090859;28;20596;-68
2022/09/03 09:24:25;;;;;;;2.70;1.05;;;24.00;51.90;;;;;;5090019;28;20226;-70
2022/09/03 09:26:58;;;;;;;2.05;1.17;;;24.00;51.40;;;;;;5091389;28;20743;-69
2022/09/03 09:29:27;;;;;;;1.55;1.45;;;24.10;51.60;;;;;;5090904;28;20269;-70
2022/09/03 09:31:54;;;;;;;5.30;2.42;;;24.50;52.10;;;;;;5103410;28;20266;-72
2022/09/03 09:34:21;;;;;;;2.47;1.55;;;24.90;51.20;;;;;;5093762;28;20211;-72
2022/09/03 09:36:52;;;;;;;2.88;1.40;;;25.20;51.00;;;;;;5092758;28;20250;-70
2022/09/03 09:39:20;;;;;;;1.75;0.93;;;25.70;49.20;;;;;;5092475;28;20200;-67
2022/09/03 09:41:58;;;;;;;2.88;1.55;;;25.80;48.60;;;;;;5083467;28;20205;-67
2022/09/03 09:44:26;;;;;;;2.22;1.60;;;25.70;48.60;;;;;;5091111;28;20215;-71
2022/09/03 09:47:05;;;;;;;2.15;1.17;;;25.80;48.10;;;;;;5095414;28;20208;-70
2022/09/03 09:49:35;;;;;;;5.38;1.15;;;26.00;48.00;;;;;;5090840;28;20224;-70
2022/09/03 09:52:07;;;;;;;1.25;1.10;;;26.20;47.10;;;;;;5089366;28;20211;-70
2022/09/03 09:54:35;;;;;;;3.70;1.73;;;26.30;46.50;;;;;;5091152;28;20257;-68
2022/09/03 09:57:04;;;;;;;1.92;1.10;;;26.40;46.90;;;;;;5093744;28;20200;-70
2022/09/03 09:59:32;;;;;;;1.40;1.30;;;26.60;46.40;;;;;;5092507;28;20203;-70
2022/09/03 10:02:12;;;;;;;0.95;0.95;;;26.80;44.80;;;;;;5090272;28;20206;-69
2022/09/03 10:04:39;;;;;;;2.65;1.00;;;26.60;45.10;;;;;;5093073;28;20271;-68
2022/09/03 10:07:23;;;;;;;2.97;1.20;;;26.80;45.10;;;;;;5094595;28;20213;-69
2022/09/03 10:10:00;;;;;;;1.80;1.55;;;27.10;43.90;;;;;;5094219;28;20277;-71
2022/09/03 10:12:33;;;;;;;1.80;0.98;;;27.00;43.90;;;;;;5097679;28;20649;-70
2022/09/03 10:15:20;;;;;;;1.30;1.10;;;26.80;43.90;;;;;;5094228;28;20304;-71
2022/09/03 10:17:57;;;;;;;1.80;1.40;;;26.70;44.30;;;;;;5098784;28;20235;-70
2022/09/03 10:20:32;;;;;;;2.78;1.30;;;26.80;44.60;;;;;;5097994;28;20220;-68
2022/09/03 10:23:11;;;;;;;1.00;0.80;;;27.30;45.00;;;;;;5098263;28;20229;-69
2022/09/03 10:25:49;;;;;;;1.10;1.00;;;27.70;44.00;;;;;;5092913;28;20212;-66
2022/09/03 10:28:16;;;;;;;1.20;1.10;;;28.10;43.40;;;;;;5092373;28;20211;-72
2022/09/03 10:31:12;;;;;;;3.20;1.45;;;28.30;42.00;;;;;;5092917;28;20204;-69
2022/09/03 10:33:44;;;;;;;2.22;1.17;;;28.20;41.50;;;;;;5083126;28;20196;-69
2022/09/03 10:36:17;;;;;;;1.30;1.17;;;28.20;41.90;;;;;;5094081;28;20275;-68
2022/09/03 10:38:53;;;;;;;2.50;1.20;;;28.20;41.30;;;;;;5080646;28;20282;-67
2022/09/03 10:41:32;;;;;;;3.22;1.48;;;28.00;41.20;;;;;;5095272;28;20208;-68
2022/09/03 10:44:15;;;;;;;2.13;1.58;;;28.10;41.60;;;;;;5094319;28;20197;-68
2022/09/03 10:46:54;;;;;;;2.20;0.98;;;28.40;41.50;;;;;;5093296;28;20206;-68
2022/09/03 10:49:31;;;;;;;2.38;1.33;;;28.30;40.50;;;;;;5095585;28;20221;-68
2022/09/03 10:52:06;;;;;;;1.33;0.93;;;28.00;40.50;;;;;;5095148;28;20573;-68
2022/09/03 10:54:47;;;;;;;1.30;1.08;;;27.70;40.60;;;;;;5094187;28;20586;-68
2022/09/03 10:57:23;;;;;;;1.75;1.02;;;27.70;41.40;;;;;;5094568;28;20209;-68
2022/09/03 11:00:05;;;;;;;2.22;1.27;;;28.30;41.20;;;;;;5088047;28;20204;-67
2022/09/03 11:03:22;;;;;;;0.80;0.80;;;28.90;40.10;;;;;;5092253;28;20295;-67
2022/09/03 11:05:58;;;;;;;1.63;1.17;;;29.40;39.50;;;;;;5090150;28;20201;-69
2022/09/03 11:08:30;;;;;;;2.70;1.35;;;29.70;39.30;;;;;;5091497;28;20473;-70
2022/09/03 11:11:08;;;;;;;1.80;1.13;;;29.90;39.10;;;;;;5083601;28;20201;-70
2022/09/03 11:13:41;;;;;;;1.23;0.98;;;29.90;38.90;;;;;;5099266;28;20211;-70
2022/09/03 11:16:13;;;;;;;2.15;1.17;;;29.80;38.20;;;;;;5097388;28;20200;-70
2022/09/03 11:18:46;;;;;;;1.10;0.95;;;29.60;38.00;;;;;;5095885;28;20574;-69
2022/09/03 11:21:17;;;;;;;2.90;0.98;;;29.50;38.20;;;;;;5086325;28;20220;-71
2022/09/03 11:23:46;;;;;;;1.10;0.95;;;29.30;38.20;;;;;;5091023;28;20526;-70
2022/09/03 11:26:18;;;;;;;2.17;1.50;;;29.20;38.60;;;;;;5094827;28;20208;-69
2022/09/03 11:28:54;;;;;;;2.50;1.00;;;29.30;39.20;;;;;;5097392;28;20779;-70
2022/09/03 11:31:31;;;;;;;2.20;1.20;;;29.10;38.90;;;;;;5102290;28;20208;-70
2022/09/03 11:34:05;;;;;;;3.65;1.15;;;29.30;39.00;;;;;;5090811;28;20204;-70
2022/09/03 11:36:33;;;;;;;2.15;1.10;;;29.40;38.70;;;;;;5098090;28;20228;-69
2022/09/03 11:39:01;;;;;;;2.50;1.45;;;29.50;38.90;;;;;;5093347;28;20215;-70
2022/09/03 11:41:34;;;;;;;0.88;0.88;;;29.50;37.60;;;;;;5095194;28;20208;-69
2022/09/03 11:44:16;;;;;;;1.35;0.70;;;29.50;38.00;;;;;;5093428;28;20228;-68
2022/09/03 11:46:54;;;;;;;1.55;0.68;;;29.30;36.60;;;;;;5091979;28;20219;-70
2022/09/03 11:49:39;;;;;;;2.00;0.70;;;29.20;37.70;;;;;;5101697;28;20564;-68
2022/09/03 11:52:08;;;;;;;0.82;0.70;;;29.50;37.50;;;;;;5099598;28;20200;-66
2022/09/03 11:54:43;;;;;;;1.17;0.75;;;29.50;38.10;;;;;;5101821;28;20204;-67
2022/09/03 11:57:14;;;;;;;1.67;0.85;;;29.30;37.40;;;;;;5090268;28;20211;-68
2022/09/03 11:59:44;;;;;;;1.15;0.85;;;29.10;38.00;;;;;;5080129;28;20687;-68
2022/09/03 12:02:26;;;;;;;1.35;0.70;;;29.10;38.40;;;;;;5093059;28;20243;-67
2022/09/03 12:05:05;;;;;;;2.53;1.50;;;28.80;38.10;;;;;;5089214;28;20271;-69
2022/09/03 12:07:49;;;;;;;3.25;1.35;;;28.80;38.60;;;;;;5088907;28;20748;-69
2022/09/03 12:10:52;;;;;;;1.20;0.60;;;28.80;39.50;;;;;;5093082;28;20714;-72
2022/09/03 12:13:33;;;;;;;1.02;0.60;;;28.80;40.20;;;;;;5079373;28;20230;-66
2022/09/03 12:16:28;;;;;;;2.47;0.85;;;28.60;38.90;;;;;;5088846;28;20296;-68
2022/09/03 12:19:00;;;;;;;1.60;0.82;;;28.20;39.20;;;;;;5082881;28;20209;-69
2022/09/03 12:21:26;;;;;;;3.03;0.98;;;28.00;40.10;;;;;;5095525;28;20207;-70
2022/09/03 12:23:54;;;;;;;0.60;0.60;;;28.00;40.70;;;;;;5096769;28;20212;-68
2022/09/03 12:26:24;;;;;;;0.70;0.70;;;27.90;40.50;;;;;;5088634;28;20201;-69
2022/09/03 12:28:55;;;;;;;1.88;0.85;;;27.80;39.60;;;;;;5096217;28;20207;-69
2022/09/03 12:31:24;;;;;;;1.20;0.70;;;27.80;40.30;;;;;;5091277;28;20204;-69
2022/09/03 12:33:53;;;;;;;2.42;1.00;;;27.80;39.50;;;;;;5090868;28;20261;-69
2022/09/03 12:36:21;;;;;;;1.92;1.40;;;27.80;39.90;;;;;;5091535;28;20599;-71
2022/09/03 12:38:48;;;;;;;1.33;1.00;;;27.90;39.80;;;;;;5093089;28;20631;-69
2022/09/03 12:41:25;;;;;;;1.52;0.80;;;28.20;39.50;;;;;;5082890;28;20208;-68
2022/09/03 12:43:54;;;;;;;2.25;0.80;;;28.20;39.20;;;;;;5105656;28;20653;-68
2022/09/03 12:46:26;;;;;;;2.47;0.93;;;28.00;39.40;;;;;;5085400;28;20231;-72
2022/09/03 12:48:55;;;;;;;3.92;0.80;;;27.70;39.80;;;;;;5102704;28;20209;-71
2022/09/03 12:51:22;;;;;;;1.95;0.70;;;27.60;40.00;;;;;;5083947;28;20204;-69
2022/09/03 12:53:52;;;;;;;1.52;1.00;;;27.70;41.00;;;;;;5092639;28;20212;-71
2022/09/03 12:56:20;;;;;;;2.20;1.00;;;27.80;40.40;;;;;;5092374;28;20208;-72
2022/09/03 12:58:52;;;;;;;1.95;1.05;;;27.80;40.10;;;;;;5091708;28;20204;-70
2022/09/03 13:01:24;;;;;;;1.52;1.00;;;27.60;40.30;;;;;;5085893;28;20201;-67
2022/09/03 13:03:56;;;;;;;10.75;1.33;;;27.40;40.20;;;;;;5087341;28;20237;-68
2022/09/03 13:06:25;;;;;;;1.65;1.00;;;27.40;40.60;;;;;;5104681;28;20307;-65
2022/09/03 13:08:57;;;;;;;1.17;0.70;;;27.60;40.20;;;;;;5093156;28;20201;-65
2022/09/03 13:11:25;;;;;;;2.83;1.08;;;27.70;40.30;;;;;;5107128;28;20191;-68